Time;durP1;ratioP1;P1;durP2;ratioP2;P2;SDS_P1;SDS_P2;PMS_P1;PMS_P2;Temp;Humidity;BMP_temperature;BMP_pressure;BME280_temperature;BME280_humidity;BME280_pressure;Samples;Min_cycle;Max_cycle;Signal;HPM_P1;HPM_P2
2022/02/26 00:00:10;;;;;;;1.67;1.50;;;2.10;98.20;;;;;;5009517;28;20467;-71
2022/02/26 00:02:38;;;;;;;1.70;1.60;;;2.10;98.20;;;;;;5014201;28;20482;-71
2022/02/26 00:05:06;;;;;;;1.70;1.50;;;2.10;98.20;;;;;;5010831;28;20856;-71
2022/02/26 00:07:33;;;;;;;1.70;1.60;;;2.10;98.20;;;;;;5011057;28;20477;-71
2022/02/26 00:10:01;;;;;;;1.70;1.60;;;2.10;98.20;;;;;;5009688;28;20470;-72
2022/02/26 00:12:28;;;;;;;1.70;1.60;;;2.10;98.20;;;;;;5010454;28;21010;-71
2022/02/26 00:14:55;;;;;;;1.70;1.60;;;2.00;98.20;;;;;;5010107;28;20475;-71
2022/02/26 00:17:21;;;;;;;1.70;1.60;;;2.00;98.20;;;;;;5010220;28;20483;-71
2022/02/26 00:19:49;;;;;;;1.70;1.60;;;2.10;98.20;;;;;;5009134;28;20464;-71
2022/02/26 00:22:16;;;;;;;1.70;1.60;;;2.00;98.20;;;;;;5008805;28;20832;-71
2022/02/26 00:24:43;;;;;;;1.67;1.53;;;2.10;98.20;;;;;;5009472;28;20574;-71
2022/02/26 00:27:10;;;;;;;1.83;1.73;;;2.10;98.20;;;;;;5011053;28;20460;-72
2022/02/26 00:29:37;;;;;;;1.70;1.50;;;2.10;98.20;;;;;;5010615;28;20491;-71
2022/02/26 00:32:04;;;;;;;1.70;1.50;;;2.10;98.20;;;;;;5009932;28;20472;-71
2022/02/26 00:34:31;;;;;;;1.63;1.50;;;2.10;98.20;;;;;;5009812;28;20795;-71
2022/02/26 00:36:59;;;;;;;1.60;1.40;;;2.10;98.20;;;;;;5011072;28;21059;-71
2022/02/26 00:39:27;;;;;;;1.70;1.50;;;2.20;98.20;;;;;;5009533;28;20542;-71
2022/02/26 00:41:53;;;;;;;1.70;1.50;;;2.20;98.20;;;;;;5010088;28;20464;-71
2022/02/26 00:44:20;;;;;;;1.70;1.53;;;2.30;98.20;;;;;;5010363;28;20488;-71
2022/02/26 00:46:47;;;;;;;1.70;1.53;;;2.30;98.20;;;;;;5010253;28;20487;-71
2022/02/26 00:52:00;;;;;;;1.67;1.53;;;2.30;98.20;;;;;;5009964;28;20440;-71
2022/02/26 00:54:26;;;;;;;1.70;1.60;;;2.40;98.20;;;;;;5009307;28;20498;-71
2022/02/26 00:56:53;;;;;;;1.70;1.50;;;2.40;98.20;;;;;;5009437;28;20488;-71
2022/02/26 00:59:20;;;;;;;1.70;1.50;;;2.40;98.20;;;;;;5009634;28;20468;-72
2022/02/26 01:01:47;;;;;;;1.60;1.40;;;2.40;98.20;;;;;;5009533;28;20464;-71
2022/02/26 01:04:14;;;;;;;1.70;1.50;;;2.40;98.20;;;;;;5009430;28;20468;-71
2022/02/26 01:06:40;;;;;;;1.80;1.70;;;2.40;98.20;;;;;;5006203;28;20479;-71
2022/02/26 01:09:09;;;;;;;1.70;1.53;;;2.40;98.20;;;;;;5005292;28;20464;-71
2022/02/26 01:11:35;;;;;;;1.60;1.43;;;2.40;98.20;;;;;;5002746;28;20471;-71
2022/02/26 01:14:02;;;;;;;1.70;1.50;;;2.40;98.20;;;;;;5009434;28;20460;-71
2022/02/26 01:16:29;;;;;;;1.70;1.50;;;2.40;98.20;;;;;;5002867;28;20496;-71
2022/02/26 01:18:56;;;;;;;1.70;1.50;;;2.40;98.20;;;;;;5002640;28;20463;-72
2022/02/26 01:21:23;;;;;;;1.63;1.40;;;2.50;98.20;;;;;;5007274;28;20464;-71
2022/02/26 01:23:50;;;;;;;1.70;1.50;;;2.50;98.20;;;;;;5003378;28;20559;-71
2022/02/26 01:26:18;;;;;;;1.67;1.50;;;2.50;98.20;;;;;;5009187;28;21014;-71
2022/02/26 01:28:45;;;;;;;1.70;1.50;;;2.50;98.20;;;;;;5004040;28;20476;-71
2022/02/26 01:31:13;;;;;;;1.63;1.50;;;2.50;98.20;;;;;;5009237;28;20470;-71
2022/02/26 01:33:40;;;;;;;1.63;1.50;;;2.60;98.20;;;;;;5003691;28;20464;-71
2022/02/26 01:36:07;;;;;;;1.60;1.50;;;2.60;98.20;;;;;;5007991;28;20488;-71
2022/02/26 01:38:35;;;;;;;1.70;1.50;;;2.60;98.20;;;;;;5006297;28;20834;-71
2022/02/26 01:41:03;;;;;;;1.60;1.50;;;2.60;98.20;;;;;;5001494;28;20834;-71
2022/02/26 01:43:32;;;;;;;1.67;1.40;;;2.60;98.20;;;;;;5005301;28;20702;-71
2022/02/26 01:45:59;;;;;;;1.60;1.40;;;2.60;98.20;;;;;;5008905;28;20487;-71
2022/02/26 01:48:26;;;;;;;1.63;1.37;;;2.60;98.20;;;;;;5008451;28;20456;-71
2022/02/26 01:50:53;;;;;;;1.60;1.40;;;2.60;98.20;;;;;;5005969;28;20460;-71
2022/02/26 01:53:20;;;;;;;1.60;1.40;;;2.60;98.20;;;;;;5008602;28;20824;-71
2022/02/26 01:55:47;;;;;;;1.67;1.40;;;2.60;98.20;;;;;;5008212;28;20901;-71
2022/02/26 01:58:14;;;;;;;1.63;1.40;;;2.70;98.20;;;;;;5007517;28;20497;-71
2022/02/26 02:00:42;;;;;;;1.63;1.40;;;2.70;98.20;;;;;;5007220;28;20475;-71
2022/02/26 02:03:09;;;;;;;1.60;1.40;;;2.70;98.20;;;;;;5008932;28;20467;-71
2022/02/26 02:05:36;;;;;;;1.63;1.40;;;2.70;98.20;;;;;;5008351;28;20496;-71
2022/02/26 02:08:03;;;;;;;1.70;1.57;;;2.70;98.20;;;;;;5007967;28;21017;-70
2022/02/26 02:10:30;;;;;;;1.60;1.50;;;2.70;98.20;;;;;;5008295;28;20479;-70
2022/02/26 02:12:58;;;;;;;1.70;1.50;;;2.70;98.20;;;;;;5008873;28;20626;-70
2022/02/26 02:15:33;;;;;;;1.63;1.40;;;2.70;98.20;;;;;;5007573;28;20571;-70
2022/02/26 02:18:02;;;;;;;1.67;1.47;;;2.70;98.20;;;;;;5007964;28;20582;-70
2022/02/26 02:20:29;;;;;;;1.70;1.60;;;2.70;98.20;;;;;;5007706;28;20478;-70
2022/02/26 02:22:57;;;;;;;1.63;1.40;;;2.80;98.20;;;;;;5002383;28;20598;-70
2022/02/26 02:25:28;;;;;;;1.70;1.50;;;2.80;98.20;;;;;;5004237;28;20495;-70
2022/02/26 02:27:56;;;;;;;1.70;1.50;;;2.80;98.20;;;;;;5008263;28;20475;-70
2022/02/26 02:30:23;;;;;;;1.73;1.63;;;2.80;98.20;;;;;;5007872;28;20455;-70
2022/02/26 02:32:50;;;;;;;1.67;1.40;;;2.80;98.20;;;;;;5008762;28;20471;-70
2022/02/26 02:35:28;;;;;;;1.70;1.50;;;2.80;98.20;;;;;;5009149;28;20527;-70
2022/02/26 02:37:57;;;;;;;1.60;1.50;;;2.90;98.20;;;;;;5006128;28;20971;-70
2022/02/26 02:40:25;;;;;;;1.70;1.60;;;2.90;98.20;;;;;;5006750;28;20848;-70
2022/02/26 02:42:52;;;;;;;1.63;1.50;;;2.90;98.20;;;;;;5008497;28;20479;-70
2022/02/26 02:45:19;;;;;;;1.70;1.60;;;2.90;98.20;;;;;;5002811;28;20488;-70
2022/02/26 02:47:46;;;;;;;1.70;1.60;;;2.90;98.20;;;;;;5010849;28;20851;-70
2022/02/26 02:50:15;;;;;;;1.67;1.40;;;2.90;98.20;;;;;;5009469;28;20496;-70
2022/02/26 02:52:42;;;;;;;1.67;1.40;;;2.90;98.20;;;;;;5006347;28;20510;-70
2022/02/26 02:55:12;;;;;;;1.67;1.50;;;2.90;98.20;;;;;;5009237;28;20490;-70
2022/02/26 02:57:39;;;;;;;1.67;1.47;;;2.90;98.20;;;;;;5011670;28;20562;-70
2022/02/26 03:00:07;;;;;;;1.63;1.40;;;2.90;98.20;;;;;;5010755;28;20468;-70
2022/02/26 03:02:34;;;;;;;1.67;1.50;;;2.90;98.20;;;;;;5009226;28;20459;-70
2022/02/26 03:05:01;;;;;;;1.63;1.40;;;2.90;98.20;;;;;;5012346;28;20855;-70
2022/02/26 03:07:28;;;;;;;1.60;1.50;;;2.90;98.20;;;;;;5011681;28;20456;-70
2022/02/26 03:09:54;;;;;;;1.63;1.40;;;2.90;98.20;;;;;;5011750;28;20991;-70
2022/02/26 03:12:23;;;;;;;1.80;1.70;;;2.80;98.20;;;;;;5010424;28;20460;-70
2022/02/26 03:14:49;;;;;;;1.70;1.53;;;2.80;98.20;;;;;;5012158;28;20499;-70
2022/02/26 03:17:16;;;;;;;1.67;1.50;;;2.80;98.20;;;;;;5010063;28;21034;-71
2022/02/26 03:19:47;;;;;;;1.70;1.50;;;2.80;98.20;;;;;;5010113;28;20539;-71
2022/02/26 03:22:14;;;;;;;1.70;1.50;;;2.80;98.20;;;;;;5010886;28;20468;-70
2022/02/26 03:24:41;;;;;;;1.67;1.40;;;2.80;98.20;;;;;;5011420;28;20492;-71
2022/02/26 03:27:07;;;;;;;1.60;1.50;;;2.70;98.20;;;;;;5011310;28;20471;-71
2022/02/26 03:29:36;;;;;;;1.60;1.40;;;2.70;98.20;;;;;;5011709;28;20830;-71
2022/02/26 03:32:03;;;;;;;1.70;1.60;;;2.70;98.20;;;;;;5011783;28;20471;-71
2022/02/26 03:34:30;;;;;;;1.67;1.50;;;2.70;98.20;;;;;;5010596;28;20491;-71
2022/02/26 03:36:57;;;;;;;1.60;1.50;;;2.70;98.20;;;;;;5012210;28;20495;-71
2022/02/26 03:39:24;;;;;;;1.70;1.57;;;2.60;98.20;;;;;;5010433;28;20487;-71
2022/02/26 03:41:52;;;;;;;1.67;1.53;;;2.60;98.20;;;;;;5011246;28;20460;-71
2022/02/26 03:44:19;;;;;;;1.60;1.50;;;2.50;98.20;;;;;;5010552;28;21020;-71
2022/02/26 03:46:47;;;;;;;1.73;1.63;;;2.40;98.20;;;;;;5011038;28;20755;-71
2022/02/26 03:49:14;;;;;;;1.70;1.60;;;2.40;98.20;;;;;;5010627;28;20456;-71
2022/02/26 03:51:40;;;;;;;1.60;1.40;;;2.30;98.20;;;;;;5005768;28;21038;-71
2022/02/26 03:54:07;;;;;;;1.70;1.60;;;2.20;98.20;;;;;;5019339;28;20839;-71
2022/02/26 03:56:34;;;;;;;1.70;1.60;;;2.20;98.20;;;;;;5010010;28;20486;-71
2022/02/26 03:59:01;;;;;;;1.70;1.57;;;2.20;98.20;;;;;;5009864;28;20530;-71
2022/02/26 04:01:28;;;;;;;1.70;1.60;;;2.10;98.20;;;;;;5009255;28;20468;-71
2022/02/26 04:03:56;;;;;;;1.60;1.40;;;2.00;98.20;;;;;;5011075;28;20468;-71
2022/02/26 04:06:23;;;;;;;1.67;1.50;;;2.00;98.20;;;;;;5009442;28;20832;-71
2022/02/26 04:08:50;;;;;;;1.70;1.50;;;1.90;98.20;;;;;;5010349;28;20464;-71
2022/02/26 04:11:16;;;;;;;1.60;1.50;;;1.90;98.20;;;;;;5010018;28;20854;-71
2022/02/26 04:13:43;;;;;;;1.80;1.70;;;1.80;98.20;;;;;;5010420;28;20460;-71
2022/02/26 04:16:10;;;;;;;1.70;1.53;;;1.80;98.20;;;;;;5010026;28;20787;-71
2022/02/26 04:18:37;;;;;;;1.80;1.70;;;1.70;98.20;;;;;;5009821;28;20790;-71
2022/02/26 04:21:05;;;;;;;1.63;1.50;;;1.70;98.20;;;;;;5009163;28;20468;-71
2022/02/26 04:23:32;;;;;;;1.70;1.50;;;1.70;98.20;;;;;;5010092;28;20471;-71
2022/02/26 04:25:59;;;;;;;1.70;1.60;;;1.60;98.20;;;;;;5010540;28;20503;-71
2022/02/26 04:28:25;;;;;;;1.73;1.63;;;1.60;98.20;;;;;;5010052;28;20467;-71
2022/02/26 04:30:52;;;;;;;1.63;1.50;;;1.60;98.20;;;;;;5009275;28;20844;-71
2022/02/26 04:33:20;;;;;;;1.70;1.60;;;1.60;98.20;;;;;;5010135;28;20472;-71
2022/02/26 04:35:47;;;;;;;1.70;1.60;;;1.50;98.20;;;;;;5010211;28;20530;-71
2022/02/26 04:38:15;;;;;;;1.67;1.50;;;1.50;98.20;;;;;;5008457;28;20491;-71
2022/02/26 04:40:42;;;;;;;1.70;1.50;;;1.40;98.20;;;;;;5008427;28;20460;-71
2022/02/26 04:43:09;;;;;;;1.70;1.60;;;1.40;98.20;;;;;;5010253;28;20475;-71
2022/02/26 04:45:35;;;;;;;1.70;1.50;;;1.40;98.20;;;;;;5009831;28;20484;-71
2022/02/26 04:48:03;;;;;;;1.70;1.50;;;1.40;98.20;;;;;;5009709;28;20456;-71
2022/02/26 04:50:30;;;;;;;1.80;1.70;;;1.40;98.20;;;;;;5009096;28;20626;-71
2022/02/26 04:52:57;;;;;;;1.63;1.50;;;1.30;98.20;;;;;;5010359;28;20853;-71
2022/02/26 04:55:25;;;;;;;1.67;1.50;;;1.30;98.20;;;;;;5009060;28;20492;-71
2022/02/26 04:57:52;;;;;;;1.70;1.60;;;1.30;98.20;;;;;;5009753;28;20487;-71
2022/02/26 05:00:18;;;;;;;1.70;1.50;;;1.30;98.20;;;;;;5009386;28;21106;-71
2022/02/26 05:02:45;;;;;;;1.70;1.60;;;1.30;98.20;;;;;;5008880;28;20464;-71
2022/02/26 05:05:12;;;;;;;1.63;1.50;;;1.30;98.20;;;;;;5010064;28;20488;-71
2022/02/26 05:07:39;;;;;;;1.67;1.50;;;1.30;98.20;;;;;;5010020;28;20472;-71
2022/02/26 05:10:07;;;;;;;1.67;1.53;;;1.30;98.20;;;;;;5007949;28;20464;-71
2022/02/26 05:12:35;;;;;;;1.70;1.50;;;1.20;98.20;;;;;;5009625;28;20496;-71
2022/02/26 05:15:02;;;;;;;1.70;1.60;;;1.20;98.20;;;;;;5009880;28;20496;-71
2022/02/26 05:17:29;;;;;;;1.70;1.57;;;1.20;98.20;;;;;;5008071;28;20491;-71
2022/02/26 05:19:55;;;;;;;1.70;1.60;;;1.20;98.20;;;;;;5008307;28;20461;-72
2022/02/26 05:22:22;;;;;;;1.63;1.50;;;1.20;98.20;;;;;;5008729;28;20468;-71
2022/02/26 05:24:49;;;;;;;1.70;1.60;;;1.10;98.20;;;;;;5008748;28;20554;-71
2022/02/26 05:27:16;;;;;;;1.73;1.63;;;1.10;98.20;;;;;;5008809;28;20929;-71
2022/02/26 05:29:44;;;;;;;1.70;1.60;;;1.10;98.20;;;;;;5007670;28;20464;-71
2022/02/26 05:32:10;;;;;;;1.70;1.60;;;1.10;98.20;;;;;;5008199;28;20464;-71
2022/02/26 05:34:37;;;;;;;1.80;1.70;;;1.00;98.20;;;;;;5008621;28;20495;-71
2022/02/26 05:37:05;;;;;;;1.80;1.70;;;1.00;98.20;;;;;;5008480;28;20580;-72
2022/02/26 05:39:31;;;;;;;2.23;2.07;;;1.00;98.20;;;;;;5008637;28;20499;-71
2022/02/26 05:41:58;;;;;;;1.70;1.60;;;0.90;98.20;;;;;;5008505;28;20629;-71
2022/02/26 05:44:25;;;;;;;1.80;1.70;;;0.90;98.20;;;;;;5008183;28;20491;-71
2022/02/26 05:46:53;;;;;;;1.60;1.50;;;0.90;98.20;;;;;;5008726;28;20464;-71
2022/02/26 05:49:20;;;;;;;1.80;1.70;;;0.80;98.20;;;;;;5008201;28;20468;-72
2022/02/26 05:51:47;;;;;;;1.70;1.60;;;0.80;98.20;;;;;;5007475;28;20483;-71
2022/02/26 05:54:13;;;;;;;1.70;1.60;;;0.80;98.20;;;;;;5008863;28;20850;-71
2022/02/26 05:56:40;;;;;;;1.67;1.50;;;0.80;98.20;;;;;;5007847;28;20464;-71
2022/02/26 05:59:07;;;;;;;1.70;1.60;;;0.80;98.20;;;;;;5008400;28;20484;-71
2022/02/26 06:01:34;;;;;;;1.70;1.60;;;0.70;98.20;;;;;;5006642;28;20469;-71
2022/02/26 06:04:02;;;;;;;1.63;1.50;;;0.70;98.20;;;;;;5008997;28;20491;-71
2022/02/26 06:06:28;;;;;;;1.70;1.60;;;0.80;98.20;;;;;;5008112;28;20548;-71
2022/02/26 06:08:55;;;;;;;1.70;1.60;;;0.80;98.20;;;;;;5005430;28;20472;-71
2022/02/26 06:11:22;;;;;;;1.70;1.60;;;0.80;98.20;;;;;;5006635;28;20475;-71
2022/02/26 06:13:49;;;;;;;1.70;1.60;;;0.80;98.20;;;;;;5007548;28;20464;-71
2022/02/26 06:16:16;;;;;;;1.73;1.63;;;0.90;98.20;;;;;;5006906;28;20480;-71
2022/02/26 06:18:43;;;;;;;1.70;1.60;;;0.90;98.20;;;;;;5008181;28;20855;-71
2022/02/26 06:21:11;;;;;;;1.70;1.60;;;0.90;98.20;;;;;;5007183;28;20945;-71
2022/02/26 06:23:38;;;;;;;1.70;1.60;;;0.90;98.20;;;;;;5007849;28;20479;-72
2022/02/26 06:26:05;;;;;;;1.60;1.50;;;0.90;98.20;;;;;;5011530;28;20495;-71
2022/02/26 06:28:31;;;;;;;1.80;1.70;;;0.90;98.20;;;;;;5008605;28;20468;-71
2022/02/26 06:30:58;;;;;;;1.70;1.60;;;1.00;98.20;;;;;;5007271;28;20697;-71
2022/02/26 06:33:25;;;;;;;1.70;1.60;;;1.10;98.20;;;;;;5007262;28;20468;-71
2022/02/26 06:35:52;;;;;;;1.70;1.60;;;1.10;98.20;;;;;;5007026;28;20480;-71
2022/02/26 06:38:20;;;;;;;1.70;1.60;;;1.20;98.20;;;;;;5007317;28;20920;-71
2022/02/26 06:40:47;;;;;;;1.60;1.50;;;1.30;98.20;;;;;;5006171;28;20465;-71
2022/02/26 06:43:14;;;;;;;1.70;1.60;;;1.30;98.20;;;;;;5008383;28;20471;-70
2022/02/26 06:45:41;;;;;;;1.70;1.50;;;1.40;98.20;;;;;;5007642;28;20484;-70
2022/02/26 06:48:07;;;;;;;1.67;1.50;;;1.40;98.20;;;;;;5007918;28;20518;-70
2022/02/26 06:50:34;;;;;;;1.67;1.43;;;1.50;98.20;;;;;;5006668;28;20464;-70
2022/02/26 06:53:01;;;;;;;1.70;1.60;;;1.60;98.20;;;;;;5007283;28;20471;-70
2022/02/26 06:55:29;;;;;;;1.63;1.50;;;1.60;98.20;;;;;;5007212;28;20500;-70
2022/02/26 06:57:56;;;;;;;1.70;1.50;;;1.70;98.20;;;;;;5007643;28;20602;-70
2022/02/26 07:00:23;;;;;;;1.90;1.80;;;1.70;98.20;;;;;;5005938;28;20952;-71
2022/02/26 07:02:50;;;;;;;1.70;1.50;;;1.80;98.20;;;;;;5007354;28;20835;-70
2022/02/26 07:05:17;;;;;;;1.67;1.50;;;1.80;98.20;;;;;;5006791;28;20492;-71
2022/02/26 07:07:43;;;;;;;1.70;1.60;;;1.90;98.20;;;;;;5006841;28;20465;-70
2022/02/26 07:10:10;;;;;;;1.60;1.40;;;1.90;98.20;;;;;;5006302;28;20670;-70
2022/02/26 07:12:39;;;;;;;1.73;1.63;;;2.00;98.20;;;;;;5006444;28;20460;-70
2022/02/26 07:15:06;;;;;;;1.70;1.50;;;2.00;98.20;;;;;;5007902;28;20496;-70
2022/02/26 07:17:33;;;;;;;1.63;1.50;;;2.10;98.20;;;;;;5009833;28;21210;-70
2022/02/26 07:20:00;;;;;;;1.60;1.50;;;2.20;98.20;;;;;;5005981;28;20574;-70
2022/02/26 07:22:27;;;;;;;1.70;1.57;;;2.20;98.20;;;;;;5006167;28;20471;-70
2022/02/26 07:24:53;;;;;;;3.20;3.00;;;2.30;98.20;;;;;;5006498;28;20487;-70
2022/02/26 07:27:20;;;;;;;1.67;1.50;;;2.40;98.20;;;;;;5008170;28;20490;-69
2022/02/26 07:29:48;;;;;;;1.70;1.50;;;2.40;98.20;;;;;;5009485;28;20463;-69
2022/02/26 07:32:15;;;;;;;1.60;1.40;;;2.50;98.20;;;;;;5007276;28;20483;-68
2022/02/26 07:34:42;;;;;;;1.67;1.50;;;2.60;98.20;;;;;;5013635;28;20566;-68
2022/02/26 07:37:10;;;;;;;1.70;1.60;;;2.70;98.20;;;;;;5009696;28;20546;-69
2022/02/26 07:39:36;;;;;;;1.63;1.40;;;2.70;98.20;;;;;;5009649;28;20590;-68
2022/02/26 07:42:04;;;;;;;1.70;1.40;;;2.70;98.20;;;;;;5010127;28;20463;-68
2022/02/26 07:44:31;;;;;;;1.60;1.30;;;2.80;98.20;;;;;;5010400;28;20992;-69
2022/02/26 07:46:59;;;;;;;1.60;1.30;;;2.80;98.20;;;;;;5010471;28;20845;-69
2022/02/26 07:49:26;;;;;;;1.70;1.50;;;2.90;98.20;;;;;;5008650;28;20848;-69
2022/02/26 07:51:53;;;;;;;1.63;1.40;;;3.00;98.20;;;;;;5009225;28;20471;-69
2022/02/26 07:54:20;;;;;;;1.70;1.50;;;3.00;98.20;;;;;;5009774;28;21016;-68
2022/02/26 07:56:47;;;;;;;1.63;1.30;;;3.10;98.20;;;;;;5009773;28;20762;-69
2022/02/26 07:59:14;;;;;;;1.70;1.50;;;3.10;98.20;;;;;;5009286;28;20488;-69
2022/02/26 08:01:41;;;;;;;1.60;1.30;;;3.20;98.20;;;;;;5008684;28;20467;-69
2022/02/26 08:04:10;;;;;;;1.70;1.50;;;3.20;98.20;;;;;;5009628;28;20475;-68
2022/02/26 08:06:37;;;;;;;1.67;1.43;;;3.30;98.20;;;;;;5009334;28;20512;-69
2022/02/26 08:09:04;;;;;;;1.70;1.40;;;3.30;98.20;;;;;;5009538;28;20475;-69
2022/02/26 08:11:31;;;;;;;1.70;1.40;;;3.40;98.20;;;;;;5007571;28;20762;-69
2022/02/26 08:13:59;;;;;;;1.70;1.50;;;3.50;98.20;;;;;;5008872;28;20968;-69
2022/02/26 08:16:28;;;;;;;1.67;1.40;;;3.50;98.20;;;;;;5009382;28;20556;-68
2022/02/26 08:18:55;;;;;;;1.70;1.53;;;3.50;98.20;;;;;;5009726;28;20491;-69
2022/02/26 08:21:23;;;;;;;1.70;1.50;;;3.50;98.20;;;;;;5006773;28;20464;-69
2022/02/26 08:23:50;;;;;;;1.60;1.30;;;3.60;98.20;;;;;;5009617;28;20956;-70
2022/02/26 08:26:17;;;;;;;1.70;1.50;;;3.70;98.20;;;;;;5007253;28;20560;-71
2022/02/26 08:28:45;;;;;;;1.60;1.30;;;3.80;98.20;;;;;;5009843;28;20465;-69
2022/02/26 08:31:12;;;;;;;1.70;1.53;;;3.90;98.20;;;;;;5006477;28;20468;-69
2022/02/26 08:33:38;;;;;;;1.70;1.40;;;4.00;98.20;;;;;;5009957;28;20464;-70
2022/02/26 08:36:06;;;;;;;1.67;1.40;;;4.00;98.20;;;;;;5001443;28;20510;-71
2022/02/26 08:38:34;;;;;;;1.67;1.40;;;4.10;98.20;;;;;;5018641;28;20496;-70
2022/02/26 08:41:00;;;;;;;1.67;1.40;;;4.20;98.20;;;;;;5001683;28;20461;-70
2022/02/26 08:43:27;;;;;;;1.70;1.40;;;4.20;98.20;;;;;;5009936;28;20838;-70
2022/02/26 08:45:54;;;;;;;1.70;1.50;;;4.20;98.20;;;;;;5009165;28;20964;-70
2022/02/26 08:48:21;;;;;;;1.70;1.50;;;4.30;98.20;;;;;;5007921;28;20542;-71
2022/02/26 08:50:48;;;;;;;1.70;1.50;;;4.30;98.20;;;;;;5009047;28;20499;-71
2022/02/26 08:53:15;;;;;;;1.70;1.40;;;4.40;98.20;;;;;;5008916;28;20798;-71
2022/02/26 08:55:43;;;;;;;1.63;1.30;;;4.40;98.20;;;;;;5010489;28;20502;-72
2022/02/26 08:58:10;;;;;;;1.73;1.53;;;4.50;98.20;;;;;;5009665;28;20472;-71
2022/02/26 09:00:37;;;;;;;1.63;1.30;;;4.50;98.20;;;;;;5009170;28;20801;-70
2022/02/26 09:03:05;;;;;;;1.60;1.30;;;4.50;98.20;;;;;;5009478;28;20471;-71
2022/02/26 09:05:32;;;;;;;2.60;2.40;;;4.50;98.20;;;;;;5009034;28;20579;-70
2022/02/26 09:07:59;;;;;;;2.43;2.23;;;4.60;98.20;;;;;;5008007;28;20471;-70
2022/02/26 09:10:26;;;;;;;1.60;1.30;;;4.60;98.20;;;;;;5008177;28;20461;-70
2022/02/26 09:12:54;;;;;;;1.70;1.47;;;4.60;98.20;;;;;;5009416;28;20465;-71
2022/02/26 09:15:21;;;;;;;1.63;1.40;;;4.60;98.20;;;;;;5008088;28;21068;-69
2022/02/26 09:17:48;;;;;;;1.60;1.30;;;4.60;98.20;;;;;;5006786;28;20467;-69
2022/02/26 09:20:14;;;;;;;1.70;1.50;;;4.70;98.20;;;;;;5006903;28;20479;-69
2022/02/26 09:22:41;;;;;;;1.70;1.40;;;4.80;98.20;;;;;;5008109;28;20849;-70
2022/02/26 09:25:11;;;;;;;1.70;1.37;;;4.90;98.20;;;;;;5008595;28;20488;-69
2022/02/26 09:27:37;;;;;;;1.63;1.40;;;4.90;98.20;;;;;;5007835;28;20559;-69
2022/02/26 09:30:07;;;;;;;1.60;1.40;;;4.90;98.20;;;;;;5008059;28;20830;-69
2022/02/26 09:32:34;;;;;;;1.60;1.30;;;4.90;98.20;;;;;;5007343;28;20518;-69
2022/02/26 09:35:01;;;;;;;1.63;1.47;;;4.90;98.20;;;;;;5008622;28;20480;-69
2022/02/26 09:37:29;;;;;;;1.70;1.60;;;5.00;98.20;;;;;;5007384;28;20896;-69
2022/02/26 09:39:58;;;;;;;1.67;1.30;;;5.00;98.20;;;;;;5007539;28;20568;-69
2022/02/26 09:42:26;;;;;;;1.70;1.40;;;5.00;98.20;;;;;;5007962;28;20459;-69
2022/02/26 09:44:54;;;;;;;1.70;1.40;;;5.00;98.20;;;;;;5007550;28;20484;-70
2022/02/26 09:47:23;;;;;;;1.70;1.40;;;5.00;98.20;;;;;;5007363;28;20487;-70
2022/02/26 09:49:50;;;;;;;1.67;1.30;;;5.10;98.20;;;;;;5007312;28;20460;-68
2022/02/26 09:52:18;;;;;;;1.70;1.40;;;5.20;98.20;;;;;;5007141;28;20483;-70
2022/02/26 09:54:48;;;;;;;1.60;1.30;;;5.20;98.20;;;;;;5007448;28;20507;-71
2022/02/26 09:57:15;;;;;;;1.70;1.47;;;5.10;98.20;;;;;;5006996;28;20483;-70
2022/02/26 09:59:44;;;;;;;1.60;1.30;;;5.20;98.20;;;;;;5006375;28;20984;-70
2022/02/26 10:02:12;;;;;;;2.00;1.83;;;5.20;98.20;;;;;;5006172;28;20535;-70
2022/02/26 10:04:52;;;;;;;1.60;1.30;;;5.30;98.20;;;;;;5005764;28;20992;-69
2022/02/26 10:07:22;;;;;;;1.63;1.30;;;5.30;98.20;;;;;;4999481;28;20989;-69
2022/02/26 10:09:49;;;;;;;1.60;1.30;;;5.40;98.20;;;;;;5006771;28;20719;-68
2022/02/26 10:12:23;;;;;;;1.60;1.30;;;5.50;98.20;;;;;;5006212;28;20464;-69
2022/02/26 10:14:51;;;;;;;1.67;1.33;;;5.50;98.20;;;;;;5006117;28;20564;-69
2022/02/26 10:17:31;;;;;;;1.70;1.40;;;5.60;98.20;;;;;;5005461;28;20479;-69
2022/02/26 10:20:06;;;;;;;1.67;1.33;;;5.70;98.20;;;;;;5004026;28;21115;-69
2022/02/26 10:22:37;;;;;;;1.83;1.70;;;5.70;98.20;;;;;;5007128;28;20806;-70
2022/02/26 10:25:07;;;;;;;1.60;1.30;;;5.80;98.20;;;;;;5007220;28;20487;-69
2022/02/26 10:27:38;;;;;;;1.70;1.60;;;5.80;98.20;;;;;;5009898;28;20460;-69
2022/02/26 10:30:06;;;;;;;1.60;1.30;;;5.80;98.20;;;;;;5005922;28;20452;-70
2022/02/26 10:32:33;;;;;;;1.60;1.30;;;5.90;98.20;;;;;;5007541;28;20467;-70
2022/02/26 10:35:00;;;;;;;1.60;1.30;;;5.90;98.20;;;;;;5008738;28;20483;-70
2022/02/26 10:37:28;;;;;;;1.60;1.20;;;6.00;98.20;;;;;;5004056;28;20504;-70
2022/02/26 10:39:57;;;;;;;1.60;1.20;;;6.20;98.20;;;;;;4995865;28;20481;-71
2022/02/26 10:42:26;;;;;;;1.60;1.20;;;6.20;98.20;;;;;;5005007;28;20541;-70
2022/02/26 10:45:08;;;;;;;1.60;1.30;;;6.30;98.20;;;;;;5005925;28;20671;-70
2022/02/26 10:47:37;;;;;;;1.60;1.30;;;6.50;98.20;;;;;;5002835;28;20466;-71
2022/02/26 10:50:15;;;;;;;1.60;1.20;;;6.80;98.20;;;;;;5001256;28;20463;-71
2022/02/26 10:52:56;;;;;;;1.60;1.20;;;7.10;98.20;;;;;;5000762;28;20565;-71
2022/02/26 10:55:24;;;;;;;1.60;1.20;;;7.50;98.20;;;;;;5001446;28;20494;-71
2022/02/26 10:57:58;;;;;;;1.60;1.20;;;7.80;98.20;;;;;;5003845;28;21015;-71
2022/02/26 11:00:27;;;;;;;1.60;1.20;;;8.10;98.20;;;;;;5002977;28;20520;-71
2022/02/26 11:03:09;;;;;;;1.60;1.30;;;8.30;98.20;;;;;;5002442;28;20551;-71
2022/02/26 11:05:37;;;;;;;1.60;1.10;;;8.50;98.20;;;;;;5003658;28;20487;-70
2022/02/26 11:08:06;;;;;;;1.60;1.20;;;8.80;98.20;;;;;;5006374;28;20475;-71
2022/02/26 11:10:34;;;;;;;1.63;1.20;;;9.00;98.20;;;;;;5005682;28;20456;-71
2022/02/26 11:13:01;;;;;;;1.60;1.10;;;9.10;98.20;;;;;;5005669;28;20467;-71
2022/02/26 11:15:31;;;;;;;1.60;1.20;;;9.10;98.20;;;;;;5006645;28;20491;-70
2022/02/26 11:17:59;;;;;;;1.87;1.67;;;9.30;98.20;;;;;;5005426;28;20464;-70
2022/02/26 11:20:31;;;;;;;1.60;1.20;;;9.40;98.20;;;;;;5006272;28;20607;-71
2022/02/26 11:22:58;;;;;;;1.60;1.30;;;9.50;98.20;;;;;;5008260;28;20471;-71
2022/02/26 11:25:28;;;;;;;1.60;1.10;;;9.60;98.20;;;;;;5005765;28;20495;-71
2022/02/26 11:27:55;;;;;;;1.60;1.10;;;9.60;98.20;;;;;;5005899;28;20711;-71
2022/02/26 11:30:28;;;;;;;1.60;1.30;;;9.60;98.20;;;;;;5004422;28;20467;-71
2022/02/26 11:32:55;;;;;;;1.60;1.20;;;9.50;98.20;;;;;;5005672;28;20846;-71
2022/02/26 11:35:24;;;;;;;1.60;1.13;;;9.50;98.20;;;;;;5005075;28;20479;-71
2022/02/26 11:37:52;;;;;;;1.60;1.10;;;9.70;98.20;;;;;;5005548;28;20495;-71
2022/02/26 11:40:20;;;;;;;1.60;1.27;;;9.80;98.20;;;;;;5004394;28;20484;-72
2022/02/26 11:42:48;;;;;;;1.60;1.10;;;9.80;98.10;;;;;;5005557;28;20473;-71
2022/02/26 11:45:19;;;;;;;1.60;1.30;;;9.90;98.00;;;;;;5004630;28;20502;-71
2022/02/26 11:47:54;;;;;;;1.60;1.10;;;10.00;97.60;;;;;;5005602;28;20554;-67
2022/02/26 11:50:25;;;;;;;1.60;1.10;;;9.90;96.20;;;;;;5003121;28;20463;-69
2022/02/26 11:52:56;;;;;;;1.60;1.13;;;9.70;97.40;;;;;;5004757;28;20797;-70
2022/02/26 11:55:28;;;;;;;1.60;1.10;;;9.40;97.10;;;;;;5004896;28;20483;-70
2022/02/26 11:58:00;;;;;;;1.60;1.20;;;9.20;98.00;;;;;;5003402;28;21163;-71
2022/02/26 12:00:30;;;;;;;1.60;1.10;;;8.70;97.30;;;;;;5002234;28;20828;-71
2022/02/26 12:03:19;;;;;;;1.60;1.20;;;8.50;98.20;;;;;;4992726;28;20487;-72
2022/02/26 12:05:47;;;;;;;2.10;1.67;;;8.20;98.20;;;;;;4997327;28;20506;-71
2022/02/26 12:08:19;;;;;;;1.60;1.20;;;8.00;98.20;;;;;;5002230;28;20534;-71
2022/02/26 12:10:55;;;;;;;1.60;1.10;;;7.80;98.20;;;;;;5001286;28;20468;-71
2022/02/26 12:13:29;;;;;;;1.70;1.50;;;7.70;98.20;;;;;;5000798;28;20475;-71
2022/02/26 12:16:27;;;;;;;1.60;1.20;;;7.60;98.20;;;;;;4999209;28;20494;-71
2022/02/26 12:18:58;;;;;;;1.60;1.20;;;7.40;98.20;;;;;;4980667;28;20480;-71
2022/02/26 12:21:30;;;;;;;1.60;1.20;;;7.30;98.20;;;;;;5001224;28;20591;-71
2022/02/26 12:24:09;;;;;;;1.57;1.20;;;7.20;98.20;;;;;;4957912;28;1349946;-69
2022/02/26 12:26:47;;;;;;;1.60;1.20;;;7.10;98.20;;;;;;5002997;28;20507;-70
2022/02/26 12:29:32;;;;;;;1.60;1.20;;;7.10;98.20;;;;;;5004446;28;20472;-70
2022/02/26 12:32:02;;;;;;;1.60;1.10;;;7.20;98.20;;;;;;5005322;28;20491;-71
2022/02/26 12:34:37;;;;;;;1.60;1.13;;;7.20;98.20;;;;;;5005304;28;20988;-71
2022/02/26 12:37:12;;;;;;;1.60;1.20;;;7.20;98.20;;;;;;5004668;28;20475;-69
2022/02/26 12:39:40;;;;;;;1.60;1.23;;;7.20;98.20;;;;;;5003959;28;20471;-69
2022/02/26 12:42:08;;;;;;;1.60;1.30;;;7.20;98.20;;;;;;5003621;28;20900;-70
2022/02/26 12:44:39;;;;;;;1.60;1.10;;;7.20;97.70;;;;;;5003903;28;20550;-71
2022/02/26 12:47:07;;;;;;;1.60;1.30;;;7.20;98.00;;;;;;5002377;28;21027;-71
2022/02/26 12:49:35;;;;;;;1.60;1.23;;;7.20;97.10;;;;;;5000088;28;21020;-70
2022/02/26 12:52:04;;;;;;;1.60;1.30;;;7.40;97.30;;;;;;5000978;28;20467;-71
2022/02/26 12:54:32;;;;;;;1.60;1.40;;;7.60;95.90;;;;;;5001558;28;21059;-70
2022/02/26 12:56:59;;;;;;;1.60;1.10;;;7.90;93.10;;;;;;5003630;28;20472;-71
2022/02/26 12:59:29;;;;;;;1.60;1.20;;;7.90;91.80;;;;;;5003990;28;20463;-70
2022/02/26 13:01:58;;;;;;;1.60;1.20;;;8.00;93.30;;;;;;5003122;28;20460;-70
2022/02/26 13:04:30;;;;;;;1.60;1.20;;;8.00;90.80;;;;;;5003635;28;21021;-70